createdAt,value
2018-11-27T00:01:31.024Z,20.60
2018-11-27T00:06:33.669Z,21.57
2018-11-27T00:11:36.284Z,20.87
2018-11-27T00:16:38.933Z,21.43
2018-11-27T00:21:41.566Z,21.13
2018-11-27T00:26:44.213Z,21.23
2018-11-27T00:31:46.784Z,21.53
2018-11-27T00:36:49.362Z,21.77
2018-11-27T00:41:51.926Z,21.10
2018-11-27T00:46:54.558Z,21.83
2018-11-27T00:51:57.193Z,21.50
2018-11-27T00:56:59.841Z,21.87
2018-11-27T01:02:02.533Z,21.87
2018-11-27T01:07:05.156Z,22.50
2018-11-27T01:12:07.751Z,21.10
2018-11-27T01:17:10.365Z,21.40
2018-11-27T01:22:12.977Z,22.17
2018-11-27T01:27:15.622Z,21.70
2018-11-27T01:32:18.188Z,20.00
2018-11-27T01:37:20.843Z,22.73
2018-11-27T01:42:23.486Z,20.90
2018-11-27T01:47:26.144Z,22.53
2018-11-27T01:52:28.831Z,20.70
2018-11-27T01:57:31.437Z,21.50
2018-11-27T02:02:34.173Z,22.43
2018-11-27T02:07:36.827Z,20.60
2018-11-27T02:12:40.962Z,20.53
2018-11-27T02:17:43.569Z,21.67
2018-11-27T02:22:46.164Z,20.90
2018-11-27T02:27:48.781Z,21.13
2018-11-27T02:32:51.396Z,20.33
2018-11-27T02:37:55.559Z,21.20
2018-11-27T02:42:58.217Z,20.03
2018-11-27T02:48:00.829Z,21.17
2018-11-27T02:53:03.453Z,20.53
2018-11-27T02:58:06.266Z,19.47
2018-11-27T03:03:08.864Z,20.17
2018-11-27T03:08:11.469Z,20.83
2018-11-27T03:13:14.149Z,20.43
2018-11-27T03:18:16.825Z,21.00
2018-11-27T03:23:19.675Z,20.50
2018-11-27T03:28:22.314Z,20.27
2018-11-27T03:33:24.960Z,21.53
2018-11-27T03:38:27.607Z,19.77
2018-11-27T03:43:30.234Z,19.73
2018-11-27T03:48:32.873Z,20.23
2018-11-27T03:53:35.502Z,20.50
2018-11-27T03:58:38.292Z,20.57
2018-11-27T04:03:40.859Z,19.70
2018-11-27T04:08:43.480Z,20.53
2018-11-27T04:13:46.106Z,20.50
2018-11-27T04:18:49.289Z,20.73
2018-11-27T04:23:52.595Z,20.00
2018-11-27T04:28:55.219Z,19.30
2018-11-27T04:33:57.850Z,19.97
2018-11-27T04:39:00.598Z,19.17
2018-11-27T04:44:03.279Z,19.33
2018-11-27T04:49:06.373Z,18.93
2018-11-27T04:54:08.961Z,19.93
2018-11-27T04:59:11.593Z,19.07
2018-11-27T05:04:14.202Z,19.83
2018-11-27T05:09:16.901Z,19.37
2018-11-27T05:14:19.732Z,20.10
2018-11-27T05:19:22.390Z,18.80
2018-11-27T05:24:25.000Z,19.17
2018-11-27T05:29:27.805Z,19.27
2018-11-27T05:34:30.421Z,20.83
2018-11-27T05:39:32.960Z,19.73
2018-11-27T05:44:35.506Z,21.20
2018-11-27T05:49:38.156Z,20.60
2018-11-27T05:54:40.768Z,19.97
2018-11-27T05:59:43.376Z,21.37
2018-11-27T06:04:46.958Z,22.07
2018-11-27T06:09:49.667Z,20.43
2018-11-27T06:14:52.309Z,19.27
2018-11-27T06:19:54.879Z,21.40
2018-11-27T06:24:57.490Z,21.20
2018-11-27T06:30:00.078Z,21.33
2018-11-27T06:35:02.826Z,21.83
2018-11-27T06:40:13.097Z,20.67
2018-11-27T06:45:17.107Z,20.83
2018-11-27T06:50:20.920Z,19.33
2018-11-27T06:55:24.049Z,19.20
2018-11-27T07:00:27.915Z,19.53
2018-11-27T07:05:30.656Z,21.33
2018-11-27T07:10:33.769Z,20.07
2018-11-27T07:15:36.488Z,19.43
2018-11-27T07:20:39.166Z,20.50
2018-11-27T07:25:41.815Z,20.13
2018-11-27T07:30:44.435Z,19.77
2018-11-27T07:35:47.137Z,20.20
2018-11-27T07:40:49.851Z,18.77
2018-11-27T07:45:55.217Z,17.43
2018-11-27T07:50:55.249Z,19.63
2018-11-27T07:55:57.921Z,17.53
2018-11-27T08:01:00.876Z,18.20
2018-11-27T08:06:03.475Z,18.07
2018-11-27T08:11:06.081Z,17.20
2018-11-27T08:16:08.780Z,17.50
2018-11-27T08:21:11.421Z,17.53
2018-11-27T08:26:14.009Z,18.00
2018-11-27T08:31:16.670Z,18.43
2018-11-27T08:36:19.470Z,17.63
2018-11-27T08:41:22.240Z,19.83
2018-11-27T08:46:25.341Z,15.93
2018-11-27T08:51:27.903Z,15.67
2018-11-27T08:56:30.693Z,17.83
2018-11-27T09:01:33.341Z,17.57
2018-11-27T09:06:36.007Z,17.67
2018-11-27T09:11:38.694Z,18.67
2018-11-27T09:16:41.489Z,17.30
2018-11-27T09:21:44.168Z,17.07
2018-11-27T09:26:50.626Z,17.60
2018-11-27T09:31:53.301Z,18.30
2018-11-27T09:36:55.963Z,18.40
2018-11-27T09:41:58.780Z,16.97
2018-11-27T09:47:01.397Z,16.67
2018-11-27T09:52:04.120Z,16.17
2018-11-27T09:57:06.773Z,16.60
2018-11-27T10:02:09.381Z,17.37
2018-11-27T10:07:12.109Z,18.83
2018-11-27T10:12:14.794Z,20.37
2018-11-27T10:17:17.425Z,21.20
2018-11-27T10:22:20.112Z,23.27
2018-11-27T10:27:22.736Z,21.17
2018-11-27T10:32:25.351Z,21.60
2018-11-27T10:37:27.917Z,21.30
2018-11-27T10:42:30.632Z,20.80
2018-11-27T10:47:33.289Z,20.53
2018-11-27T10:52:36.113Z,18.83
2018-11-27T10:57:38.833Z,18.97
2018-11-27T11:02:41.442Z,19.33
2018-11-27T11:07:44.225Z,19.03
2018-11-27T11:12:46.862Z,20.10
2018-11-27T11:17:49.591Z,18.23
2018-11-27T11:22:52.622Z,18.33
2018-11-27T11:27:57.399Z,18.73
2018-11-27T11:33:00.181Z,18.97
2018-11-27T11:38:03.391Z,18.97
2018-11-27T11:43:06.854Z,21.20
2018-11-27T11:48:09.678Z,20.13
2018-11-27T11:53:14.934Z,19.30
2018-11-27T11:58:17.915Z,18.37
2018-11-27T12:03:20.907Z,17.13
2018-11-27T12:08:23.817Z,16.77
2018-11-27T12:13:26.565Z,16.97
2018-11-27T12:18:29.395Z,16.40
2018-11-27T12:23:32.465Z,17.23
2018-11-27T12:28:35.394Z,17.93
2018-11-27T12:33:38.281Z,17.67
2018-11-27T12:38:40.880Z,17.70
2018-11-27T12:43:43.582Z,20.67
2018-11-27T12:48:46.165Z,18.60
2018-11-27T12:53:48.793Z,16.97
2018-11-27T12:58:51.444Z,16.90
2018-11-27T13:03:54.305Z,17.60
2018-11-27T13:08:56.978Z,16.83
2018-11-27T13:13:59.668Z,16.03
2018-11-27T13:19:02.377Z,15.17
2018-11-27T13:24:05.424Z,14.57
2018-11-27T13:29:08.076Z,13.87
2018-11-27T13:34:13.488Z,14.47
2018-11-27T13:39:33.054Z,14.23
2018-11-27T13:44:36.077Z,13.17
2018-11-27T13:49:38.648Z,12.53
2018-11-27T13:54:41.241Z,11.67
2018-11-27T13:59:43.874Z,12.23
2018-11-27T14:04:46.603Z,10.67
2018-11-27T14:09:49.216Z,10.13
2018-11-27T14:14:51.863Z,9.50
2018-11-27T14:19:54.518Z,10.37
2018-11-27T14:24:57.150Z,11.37
2018-11-27T14:29:59.736Z,12.20
2018-11-27T14:35:02.488Z,14.23
2018-11-27T14:40:13.962Z,14.23
2018-11-27T14:45:19.291Z,14.60
2018-11-27T14:50:21.905Z,14.13
2018-11-27T14:55:27.492Z,14.40
2018-11-27T15:00:30.314Z,14.93
2018-11-27T15:05:35.824Z,14.13
2018-11-27T15:10:38.444Z,14.33
2018-11-27T15:15:41.102Z,14.83
2018-11-27T15:20:43.758Z,14.37
2018-11-27T15:25:46.444Z,13.50
2018-11-27T15:30:49.245Z,14.63
2018-11-27T15:35:51.884Z,15.00
2018-11-27T15:40:54.603Z,13.90
2018-11-27T15:45:57.375Z,15.23
2018-11-27T15:51:00.012Z,15.33
2018-11-27T15:56:02.751Z,37.07
2018-11-27T16:01:05.926Z,15.80
2018-11-27T16:06:08.603Z,14.83
2018-11-27T16:11:11.200Z,15.80
2018-11-27T16:16:13.818Z,17.27
2018-11-27T16:21:16.404Z,16.10
2018-11-27T16:26:18.980Z,15.53
2018-11-27T16:31:21.587Z,15.83
2018-11-27T16:36:24.131Z,15.60
2018-11-27T16:41:26.782Z,18.37
2018-11-27T16:46:29.428Z,15.87
2018-11-27T16:51:32.076Z,15.43
2018-11-27T16:56:34.640Z,15.47
2018-11-27T17:01:37.318Z,15.03
2018-11-27T17:06:39.905Z,15.70
2018-11-27T17:11:42.476Z,15.73
2018-11-27T17:16:45.076Z,16.10
2018-11-27T17:21:47.732Z,16.90
2018-11-27T17:26:50.282Z,16.57
2018-11-27T17:31:52.925Z,18.03
2018-11-27T17:36:55.539Z,20.23
2018-11-27T17:41:59.018Z,20.90
2018-11-27T17:47:01.929Z,18.13
2018-11-27T17:52:04.483Z,17.57
2018-11-27T17:57:07.073Z,16.53
2018-11-27T18:02:09.689Z,16.40
2018-11-27T18:07:12.328Z,17.57
2018-11-27T18:12:14.992Z,19.67
2018-11-27T18:17:17.581Z,18.47
2018-11-27T18:22:20.197Z,18.03
2018-11-27T18:27:22.780Z,18.77
2018-11-27T18:32:25.473Z,18.13
2018-11-27T18:37:28.069Z,17.90
2018-11-27T18:42:30.654Z,17.33
2018-11-27T18:47:33.319Z,18.53
2018-11-27T18:52:36.016Z,19.10
2018-11-27T18:57:39.376Z,20.20
2018-11-27T19:02:42.244Z,20.60
2018-11-27T19:07:44.857Z,21.40
2018-11-27T19:12:48.099Z,20.27
2018-11-27T19:17:53.500Z,20.17
2018-11-27T19:22:56.141Z,21.30
2018-11-27T19:27:58.729Z,21.70
2018-11-27T19:33:01.360Z,20.87
2018-11-27T19:38:06.040Z,20.10
2018-11-27T19:43:08.682Z,35.77
2018-11-27T19:48:12.800Z,23.13
2018-11-27T19:53:15.942Z,19.47
2018-11-27T19:58:18.600Z,20.27
2018-11-27T20:03:21.209Z,19.83
2018-11-27T20:08:24.862Z,19.93
2018-11-27T20:13:27.675Z,20.77
2018-11-27T20:18:30.285Z,20.10
2018-11-27T20:23:32.955Z,20.10
2018-11-27T20:28:35.597Z,19.97
2018-11-27T20:33:38.208Z,21.40
2018-11-27T20:38:40.838Z,20.67
2018-11-27T20:43:43.600Z,21.17
2018-11-27T20:48:46.171Z,21.23
2018-11-27T20:53:48.805Z,18.87
2018-11-27T20:58:52.194Z,15.93
2018-11-27T21:03:54.842Z,17.67
2018-11-27T21:08:57.482Z,18.40
2018-11-27T21:14:00.072Z,18.60
2018-11-27T21:19:02.670Z,19.47
2018-11-27T21:24:05.559Z,23.13
2018-11-27T21:29:08.266Z,21.93
2018-11-27T21:34:10.852Z,20.63
2018-11-27T21:39:13.541Z,16.43
2018-11-27T21:44:16.183Z,16.40
2018-11-27T21:49:18.806Z,15.97
2018-11-27T21:54:21.480Z,17.20
2018-11-27T21:59:24.092Z,18.93
2018-11-27T22:04:26.761Z,17.83
2018-11-27T22:09:29.404Z,16.77
2018-11-27T22:14:32.055Z,17.27
2018-11-27T22:19:34.725Z,18.70
2018-11-27T22:24:37.316Z,18.53
2018-11-27T22:29:39.937Z,18.93
2018-11-27T22:34:42.722Z,17.83
2018-11-27T22:39:45.330Z,20.37
2018-11-27T22:44:48.013Z,18.80
2018-11-27T22:49:50.632Z,19.63
2018-11-27T22:54:53.294Z,20.00
2018-11-27T22:59:55.888Z,20.00
2018-11-27T23:04:58.538Z,20.77
2018-11-27T23:10:01.168Z,18.97
2018-11-27T23:15:05.397Z,19.70
2018-11-27T23:20:11.664Z,21.30
2018-11-27T23:25:15.765Z,20.73
2018-11-27T23:30:20.448Z,20.67
2018-11-27T23:35:23.062Z,18.37
2018-11-27T23:40:25.762Z,18.80
2018-11-27T23:45:28.510Z,20.40
2018-11-27T23:50:31.132Z,20.20
2018-11-27T23:55:33.766Z,20.60
